createdAt,value
2023-03-26T00:01:16.195Z,21.15
2023-03-26T00:03:47.173Z,19.98
2023-03-26T00:06:16.014Z,16.00
2023-03-26T00:08:45.211Z,19.02
2023-03-26T00:11:14.281Z,21.58
2023-03-26T00:13:45.442Z,20.42
2023-03-26T00:16:13.769Z,22.48
2023-03-26T00:18:44.338Z,24.63
2023-03-26T00:21:14.263Z,22.67
2023-03-26T00:23:41.651Z,14.75
2023-03-26T00:26:11.890Z,18.95
2023-03-26T00:28:40.645Z,15.82
2023-03-26T00:31:11.977Z,13.68
2023-03-26T00:33:40.905Z,13.63
2023-03-26T00:36:10.979Z,13.77
2023-03-26T00:38:39.254Z,14.30
2023-03-26T00:41:17.528Z,14.75
2023-03-26T00:43:46.561Z,19.80
2023-03-26T00:46:13.254Z,15.07
2023-03-26T00:48:45.612Z,16.60
2023-03-26T00:51:15.598Z,13.25
2023-03-26T00:53:43.950Z,17.27
2023-03-26T00:56:12.484Z,15.13
2023-03-26T00:58:39.533Z,13.23
2023-03-26T01:01:10.017Z,19.80
2023-03-26T01:03:38.598Z,18.38
2023-03-26T01:06:32.764Z,17.92
2023-03-26T01:09:12.742Z,14.48
2023-03-26T01:11:39.377Z,14.95
2023-03-26T01:14:19.434Z,12.40
2023-03-26T01:16:57.800Z,17.10
2023-03-26T01:19:33.935Z,17.20
2023-03-26T01:22:00.784Z,19.33
2023-03-26T01:24:27.493Z,12.38
2023-03-26T01:27:35.786Z,13.57
2023-03-26T01:30:12.896Z,15.27
2023-03-26T01:32:57.781Z,20.42
2023-03-26T01:35:40.767Z,20.35
2023-03-26T01:38:13.206Z,17.67
2023-03-26T01:40:50.552Z,14.85
2023-03-26T01:43:32.222Z,16.90
2023-03-26T01:46:08.776Z,25.17
2023-03-26T01:48:41.932Z,23.67
2023-03-26T01:51:11.480Z,12.18
2023-03-26T01:53:43.806Z,19.55
2023-03-26T01:56:17.166Z,19.02
2023-03-26T01:59:19.146Z,21.67
2023-03-26T02:01:54.883Z,22.85
2023-03-26T02:04:33.741Z,27.00
2023-03-26T02:07:09.350Z,22.35
2023-03-26T02:09:50.131Z,16.17
2023-03-26T02:12:17.610Z,14.68
2023-03-26T02:14:50.436Z,14.65
2023-03-26T02:17:19.136Z,15.25
2023-03-26T02:19:45.671Z,17.35
2023-03-26T02:22:15.584Z,18.15
2023-03-26T02:24:43.318Z,23.60
2023-03-26T02:27:12.362Z,20.63
2023-03-26T02:29:40.085Z,27.50
2023-03-26T02:32:08.735Z,28.95
2023-03-26T02:34:37.308Z,23.02
2023-03-26T02:37:03.761Z,19.17
2023-03-26T02:39:30.307Z,21.58
2023-03-26T02:41:56.977Z,18.77
2023-03-26T02:44:24.674Z,18.92
2023-03-26T02:46:51.176Z,20.95
2023-03-26T02:49:17.600Z,16.67
2023-03-26T02:51:44.419Z,24.80
2023-03-26T02:54:54.213Z,14.68
2023-03-26T02:57:21.371Z,26.38
2023-03-26T02:59:50.405Z,19.15
2023-03-26T03:02:18.328Z,27.23
2023-03-26T03:04:49.192Z,29.30
2023-03-26T03:07:16.048Z,25.25
2023-03-26T03:09:42.726Z,29.75
2023-03-26T03:12:09.263Z,23.40
2023-03-26T03:14:37.820Z,32.15
2023-03-26T03:17:04.355Z,34.65
2023-03-26T03:19:31.013Z,33.53
2023-03-26T03:21:57.570Z,40.10
2023-03-26T03:24:27.246Z,39.22
2023-03-26T03:26:56.892Z,37.83
2023-03-26T03:29:23.927Z,37.78
2023-03-26T03:31:50.643Z,32.53
2023-03-26T03:34:23.501Z,33.83
2023-03-26T03:36:50.141Z,41.67
2023-03-26T03:39:16.754Z,42.97
2023-03-26T03:41:43.378Z,31.77
2023-03-26T03:44:10.997Z,36.28
2023-03-26T03:46:37.680Z,27.65
2023-03-26T03:49:04.276Z,43.35
2023-03-26T03:51:31.445Z,34.78
2023-03-26T03:54:03.329Z,27.17
2023-03-26T03:56:29.982Z,35.03
2023-03-26T03:58:58.413Z,37.88
2023-03-26T04:01:25.259Z,23.20
2023-03-26T04:04:01.297Z,41.80
2023-03-26T04:06:30.237Z,32.25
2023-03-26T04:08:56.871Z,31.35
2023-03-26T04:11:23.453Z,37.05
2023-03-26T04:13:59.540Z,29.52
2023-03-26T04:16:26.221Z,45.00
2023-03-26T04:18:52.755Z,46.90
2023-03-26T04:21:19.416Z,44.75
2023-03-26T04:23:45.943Z,33.47
2023-03-26T04:26:16.867Z,36.25
2023-03-26T04:28:48.856Z,37.50
2023-03-26T04:31:18.527Z,28.17
2023-03-26T04:33:47.265Z,44.22
2023-03-26T04:36:16.088Z,38.75
2023-03-26T04:38:45.775Z,38.38
2023-03-26T04:41:14.325Z,27.52
2023-03-26T04:43:47.496Z,33.70
2023-03-26T04:46:14.416Z,34.67
2023-03-26T04:48:41.107Z,47.88
2023-03-26T04:51:07.829Z,29.73
2023-03-26T04:53:34.516Z,39.55
2023-03-26T04:56:40.975Z,46.75
2023-03-26T04:59:13.834Z,35.47
2023-03-26T05:01:42.000Z,34.38
2023-03-26T05:04:10.820Z,42.70
2023-03-26T05:06:38.145Z,32.13
2023-03-26T05:09:04.727Z,35.00
2023-03-26T05:11:31.520Z,40.13
2023-03-26T05:13:58.098Z,33.40
2023-03-26T05:16:24.911Z,41.75
2023-03-26T05:18:51.731Z,37.20
2023-03-26T05:21:18.310Z,33.75
2023-03-26T05:23:45.031Z,34.05
2023-03-26T05:26:22.900Z,37.70
2023-03-26T05:28:49.395Z,37.03
2023-03-26T05:31:21.203Z,29.63
2023-03-26T05:33:48.632Z,35.45
2023-03-26T05:36:17.297Z,36.80
2023-03-26T05:38:49.437Z,27.65
2023-03-26T05:41:19.217Z,30.13
2023-03-26T05:43:47.273Z,31.02
2023-03-26T05:46:14.376Z,34.45
2023-03-26T05:48:41.044Z,35.92
2023-03-26T05:51:08.108Z,37.45
2023-03-26T05:53:35.196Z,39.80
2023-03-26T05:56:05.695Z,27.08
2023-03-26T05:58:34.432Z,48.78
2023-03-26T06:01:06.155Z,39.35
2023-03-26T06:03:33.800Z,36.90
2023-03-26T06:06:09.156Z,31.98
2023-03-26T06:08:35.954Z,44.22
2023-03-26T06:11:05.135Z,36.85
2023-03-26T06:13:31.669Z,39.83
2023-03-26T06:16:06.108Z,29.70
2023-03-26T06:18:32.767Z,43.90
2023-03-26T06:20:59.324Z,29.95
2023-03-26T06:23:25.835Z,45.75
2023-03-26T06:25:59.873Z,36.30
2023-03-26T06:28:26.508Z,36.47
2023-03-26T06:30:53.676Z,31.23
2023-03-26T06:33:22.135Z,34.13
2023-03-26T06:35:51.479Z,26.95
2023-03-26T06:38:18.068Z,36.05
2023-03-26T06:40:44.700Z,36.95
2023-03-26T06:43:11.959Z,30.67
2023-03-26T06:45:52.012Z,36.65
2023-03-26T06:48:18.643Z,32.20
2023-03-26T06:50:45.498Z,36.30
2023-03-26T06:53:12.026Z,30.65
2023-03-26T06:55:43.025Z,31.27
2023-03-26T06:58:12.450Z,36.72
2023-03-26T07:00:39.883Z,28.33
2023-03-26T07:03:06.644Z,33.50
2023-03-26T07:05:34.581Z,40.67
2023-03-26T07:08:01.085Z,34.65
2023-03-26T07:10:27.656Z,27.85
2023-03-26T07:12:56.486Z,30.83
2023-03-26T07:15:24.092Z,37.70
2023-03-26T07:17:50.780Z,37.50
2023-03-26T07:20:17.434Z,29.40
2023-03-26T07:22:44.221Z,34.80
2023-03-26T07:25:12.245Z,27.10
2023-03-26T07:27:46.953Z,27.58
2023-03-26T07:30:13.561Z,36.13
2023-03-26T07:33:06.527Z,36.05
2023-03-26T07:35:42.037Z,25.52
2023-03-26T07:38:11.557Z,36.30
2023-03-26T07:40:48.116Z,33.15
2023-03-26T07:43:26.932Z,40.72
2023-03-26T07:45:57.571Z,35.10
2023-03-26T07:48:29.630Z,40.22
2023-03-26T07:50:57.275Z,33.50
2023-03-26T07:53:24.341Z,40.40
2023-03-26T07:55:54.952Z,32.30
2023-03-26T07:58:40.439Z,37.65
2023-03-26T08:01:28.141Z,42.83
2023-03-26T08:04:27.969Z,31.55
2023-03-26T08:07:03.493Z,35.20
2023-03-26T08:09:32.634Z,35.92
2023-03-26T08:12:17.890Z,34.30
2023-03-26T08:15:11.048Z,26.95
2023-03-26T08:17:50.278Z,31.05
2023-03-26T08:20:47.983Z,28.25
2023-03-26T08:23:27.790Z,42.85
2023-03-26T08:26:02.653Z,30.88
2023-03-26T08:28:56.261Z,31.85
2023-03-26T08:31:33.051Z,27.77
2023-03-26T08:34:00.492Z,28.88
2023-03-26T08:36:27.728Z,38.80
2023-03-26T08:38:54.306Z,38.47
2023-03-26T08:41:58.090Z,39.15
2023-03-26T08:44:52.090Z,33.53
2023-03-26T08:47:33.918Z,25.98
2023-03-26T08:50:09.416Z,29.48
2023-03-26T08:53:02.165Z,31.50
2023-03-26T08:55:52.160Z,30.40
2023-03-26T08:58:41.781Z,35.63
2023-03-26T09:04:18.847Z,30.13
2023-03-26T09:06:58.100Z,28.48
2023-03-26T09:10:02.177Z,36.70
2023-03-26T09:12:40.763Z,33.72
2023-03-26T09:17:51.732Z,30.95
2023-03-26T09:24:25.509Z,28.17
2023-03-26T09:27:19.982Z,40.17
2023-03-26T09:29:52.464Z,35.80
2023-03-26T09:32:52.785Z,35.33
2023-03-26T09:36:00.506Z,32.80
2023-03-26T09:38:35.844Z,41.22
2023-03-26T09:41:08.192Z,32.92
2023-03-26T09:43:43.771Z,30.98
2023-03-26T09:46:17.806Z,28.67
2023-03-26T09:52:59.295Z,29.80
2023-03-26T09:55:50.968Z,26.90
2023-03-26T09:58:48.392Z,28.13
2023-03-26T10:01:25.170Z,30.60
2023-03-26T10:04:03.275Z,30.00
2023-03-26T10:10:38.409Z,28.85
2023-03-26T10:13:14.876Z,22.92
2023-03-26T10:31:34.290Z,17.15
2023-03-26T10:34:31.083Z,18.88
2023-03-26T10:37:14.158Z,16.88
2023-03-26T10:40:08.686Z,16.52
2023-03-26T10:43:14.555Z,17.63
2023-03-26T10:45:48.098Z,16.67
2023-03-26T10:48:25.804Z,19.38
2023-03-26T10:50:52.697Z,17.38
2023-03-26T10:53:40.411Z,18.02
2023-03-26T10:56:32.434Z,13.18
2023-03-26T10:59:12.467Z,16.23
2023-03-26T11:01:51.329Z,14.32
2023-03-26T11:04:34.024Z,14.75
2023-03-26T11:07:18.398Z,13.13
2023-03-26T11:10:03.956Z,13.68
2023-03-26T11:13:08.729Z,13.98
2023-03-26T11:15:45.737Z,18.08
2023-03-26T11:18:18.919Z,20.85
2023-03-26T11:21:19.771Z,14.43
2023-03-26T11:24:12.988Z,13.73
2023-03-26T11:26:49.522Z,11.52
2023-03-26T11:29:37.046Z,14.48
2023-03-26T11:32:17.996Z,15.07
2023-03-26T11:35:06.051Z,12.57
2023-03-26T11:37:41.580Z,15.15
2023-03-26T11:40:21.462Z,14.88
2023-03-26T11:42:54.251Z,17.17
2023-03-26T11:45:25.644Z,13.27
2023-03-26T11:48:02.308Z,18.17
2023-03-26T11:50:32.634Z,15.30
2023-03-26T11:53:11.461Z,11.15
2023-03-26T11:55:44.342Z,14.82
2023-03-26T11:58:31.192Z,14.90
2023-03-26T12:00:58.448Z,17.80
2023-03-26T12:03:24.982Z,20.17
2023-03-26T12:08:39.474Z,15.23
2023-03-26T12:11:10.884Z,19.58
2023-03-26T12:13:44.699Z,18.75
2023-03-26T12:16:15.263Z,17.58
2023-03-26T12:18:44.141Z,14.45
2023-03-26T12:25:20.379Z,10.13
2023-03-26T12:28:02.988Z,14.88
2023-03-26T12:30:35.316Z,17.35
2023-03-26T12:33:07.154Z,11.75
2023-03-26T12:38:37.562Z,16.50
2023-03-26T12:44:42.801Z,13.45
2023-03-26T12:44:52.998Z,13.10
2023-03-26T12:47:58.582Z,14.18
2023-03-26T12:49:34.042Z,11.55
2023-03-26T12:52:20.792Z,14.07
2023-03-26T12:54:53.608Z,14.60
2023-03-26T12:57:21.693Z,14.43
2023-03-26T13:00:13.623Z,10.43
2023-03-26T13:03:16.032Z,11.25
2023-03-26T13:08:47.903Z,19.33
2023-03-26T13:11:25.034Z,9.98
2023-03-26T13:16:48.096Z,10.93
2023-03-26T13:19:23.532Z,8.25
2023-03-26T13:25:45.525Z,10.73
2023-03-26T13:28:33.415Z,9.98
2023-03-26T13:31:19.308Z,14.25
2023-03-26T13:34:00.365Z,8.57
2023-03-26T13:37:01.084Z,9.30
2023-03-26T13:39:43.675Z,9.38
2023-03-26T13:42:26.686Z,5.70
2023-03-26T13:45:07.091Z,9.18
2023-03-26T13:47:42.471Z,9.38
2023-03-26T13:50:30.914Z,7.65
2023-03-26T13:53:09.700Z,11.88
2023-03-26T13:55:41.057Z,8.07
2023-03-26T13:58:10.961Z,7.75
2023-03-26T14:00:47.819Z,8.10
2023-03-26T14:03:29.432Z,7.15
2023-03-26T14:06:00.224Z,11.77
2023-03-26T14:11:11.333Z,8.85
2023-03-26T14:13:54.519Z,9.55
2023-03-26T14:16:27.125Z,7.65
2023-03-26T14:19:04.867Z,10.55
2023-03-26T14:22:02.763Z,8.73
2023-03-26T14:24:52.008Z,7.03
2023-03-26T14:27:40.386Z,8.63
2023-03-26T14:30:38.910Z,8.63
2023-03-26T14:33:13.938Z,7.72
2023-03-26T14:35:57.496Z,5.53
2023-03-26T14:39:01.224Z,6.68
2023-03-26T14:41:27.632Z,11.50
2023-03-26T14:44:48.240Z,5.18
2023-03-26T14:47:20.522Z,8.55
2023-03-26T14:50:12.159Z,8.80
2023-03-26T14:52:50.351Z,6.85
2023-03-26T14:56:01.503Z,8.65
2023-03-26T14:58:46.851Z,7.35
2023-03-26T15:01:22.422Z,9.93
2023-03-26T15:04:16.770Z,10.00
2023-03-26T15:06:52.375Z,8.55
2023-03-26T15:09:49.085Z,6.43
2023-03-26T15:12:42.926Z,12.75
2023-03-26T15:15:31.660Z,8.43
2023-03-26T15:18:25.913Z,7.63
2023-03-26T15:21:12.843Z,6.30
2023-03-26T15:24:12.290Z,7.63
2023-03-26T15:26:53.995Z,9.60
2023-03-26T15:29:36.843Z,7.65
2023-03-26T15:33:01.238Z,8.85
2023-03-26T15:35:35.512Z,7.32
2023-03-26T15:38:46.427Z,6.30
2023-03-26T15:41:50.272Z,8.80
2023-03-26T15:44:40.990Z,6.45
2023-03-26T15:47:27.078Z,7.63
2023-03-26T15:50:19.367Z,6.57
2023-03-26T15:53:03.837Z,7.55
2023-03-26T15:55:53.296Z,7.88
2023-03-26T16:01:22.265Z,12.50
2023-03-26T16:04:26.596Z,11.30
2023-03-26T16:07:23.942Z,7.20
2023-03-26T16:09:50.808Z,8.82
2023-03-26T16:12:17.231Z,6.20
2023-03-26T16:14:45.019Z,10.07
2023-03-26T16:17:25.701Z,11.75
2023-03-26T16:20:09.490Z,12.82
2023-03-26T16:23:06.980Z,10.55
2023-03-26T16:25:57.481Z,7.07
2023-03-26T16:28:28.665Z,9.82
2023-03-26T16:31:36.775Z,8.48
2023-03-26T16:34:07.139Z,8.43
2023-03-26T16:36:36.588Z,8.43
2023-03-26T16:39:05.858Z,14.98
2023-03-26T16:41:50.162Z,10.70
2023-03-26T16:44:48.124Z,8.25
2023-03-26T16:48:02.956Z,7.70
2023-03-26T16:50:46.183Z,13.73
2023-03-26T16:53:24.017Z,7.47
2023-03-26T16:55:59.281Z,6.93
2023-03-26T16:59:00.429Z,8.43
2023-03-26T17:01:35.313Z,8.10
2023-03-26T17:04:23.094Z,6.53
2023-03-26T17:07:08.949Z,8.60
2023-03-26T17:09:39.909Z,10.82
2023-03-26T17:15:00.063Z,8.70
2023-03-26T17:17:33.283Z,6.03
2023-03-26T17:20:09.363Z,10.43
2023-03-26T17:22:51.668Z,9.10
2023-03-26T17:25:28.858Z,5.82
2023-03-26T17:28:32.766Z,4.85
2023-03-26T17:31:26.346Z,11.30
2023-03-26T17:33:53.570Z,5.13
2023-03-26T17:36:27.965Z,8.88
2023-03-26T17:38:59.572Z,10.38
2023-03-26T17:42:13.884Z,6.07
2023-03-26T17:44:50.390Z,9.50
2023-03-26T17:47:43.683Z,4.82
2023-03-26T17:50:35.620Z,5.40
2023-03-26T17:53:06.722Z,13.93
2023-03-26T17:55:37.405Z,6.63
2023-03-26T17:58:07.808Z,5.72
2023-03-26T18:00:46.916Z,4.53
2023-03-26T18:03:22.883Z,4.65
2023-03-26T18:05:55.992Z,5.45
2023-03-26T18:08:41.638Z,8.25
2023-03-26T18:11:27.293Z,5.70
2023-03-26T18:14:32.368Z,6.85
2023-03-26T18:17:00.582Z,5.00
2023-03-26T18:19:27.592Z,7.32
2023-03-26T18:21:57.467Z,6.25
2023-03-26T18:24:37.222Z,4.32
2023-03-26T18:27:10.743Z,5.32
2023-03-26T18:29:44.712Z,5.68
2023-03-26T18:32:11.644Z,5.70
2023-03-26T18:34:45.589Z,9.27
2023-03-26T18:37:22.599Z,5.43
2023-03-26T18:40:14.578Z,6.05
2023-03-26T18:42:45.703Z,11.52
2023-03-26T18:45:24.752Z,5.57
2023-03-26T18:47:57.202Z,6.00
2023-03-26T18:50:28.588Z,4.40
2023-03-26T18:52:58.925Z,6.57
2023-03-26T18:55:30.240Z,4.55
2023-03-26T18:57:57.349Z,5.50
2023-03-26T19:00:27.734Z,5.15
2023-03-26T19:03:17.538Z,4.75
2023-03-26T19:05:44.365Z,7.35
2023-03-26T19:08:11.882Z,4.82
2023-03-26T19:10:38.353Z,7.97
2023-03-26T19:13:07.399Z,5.68
2023-03-26T19:15:35.723Z,8.48
2023-03-26T19:18:11.655Z,12.60
2023-03-26T19:20:50.735Z,10.77
2023-03-26T19:23:23.347Z,8.75
2023-03-26T19:25:54.916Z,12.05
2023-03-26T19:28:29.526Z,5.78
2023-03-26T19:31:15.702Z,9.88
2023-03-26T19:33:44.398Z,5.45
2023-03-26T19:36:14.336Z,6.90
2023-03-26T19:38:48.712Z,7.82
2023-03-26T19:41:29.964Z,12.70
2023-03-26T19:43:59.978Z,9.20
2023-03-26T19:46:28.269Z,7.00
2023-03-26T19:48:56.811Z,5.78
2023-03-26T19:51:34.785Z,4.35
2023-03-26T19:54:12.606Z,10.77
2023-03-26T19:56:39.130Z,9.30
2023-03-26T19:59:05.853Z,8.20
2023-03-26T20:01:32.478Z,7.82
2023-03-26T20:04:06.681Z,9.30
2023-03-26T20:06:43.931Z,6.65
2023-03-26T20:09:12.760Z,5.47
2023-03-26T20:11:40.639Z,6.07
2023-03-26T20:14:13.682Z,4.68
2023-03-26T20:16:41.616Z,7.50
2023-03-26T20:19:09.440Z,9.48
2023-03-26T20:21:38.027Z,2.20
2023-03-26T20:24:16.181Z,4.15
2023-03-26T20:26:43.911Z,6.70
2023-03-26T20:29:11.635Z,8.45
2023-03-26T20:31:39.698Z,7.38
2023-03-26T20:34:15.619Z,4.85
2023-03-26T20:36:42.151Z,5.35
2023-03-26T20:39:09.540Z,7.38
2023-03-26T20:41:43.145Z,8.48
2023-03-26T20:44:13.652Z,7.20
2023-03-26T20:46:40.209Z,7.40
2023-03-26T20:49:06.696Z,6.82
2023-03-26T20:51:33.102Z,10.63
2023-03-26T20:54:00.587Z,4.57
2023-03-26T20:56:28.135Z,5.35
2023-03-26T20:59:10.008Z,6.70
2023-03-26T21:01:38.306Z,13.18
2023-03-26T21:04:05.381Z,6.75
2023-03-26T21:06:32.011Z,5.28
2023-03-26T21:08:58.824Z,4.93
2023-03-26T21:11:51.917Z,7.80
2023-03-26T21:14:40.368Z,6.35
2023-03-26T21:17:14.325Z,9.10
2023-03-26T21:19:41.320Z,5.78
2023-03-26T21:22:18.895Z,8.70
2023-03-26T21:24:58.182Z,7.03
2023-03-26T21:27:34.101Z,6.57
2023-03-26T21:30:00.746Z,5.85
2023-03-26T21:32:27.888Z,10.70
2023-03-26T21:34:59.308Z,9.32
2023-03-26T21:37:26.970Z,4.88
2023-03-26T21:39:53.807Z,5.88
2023-03-26T21:42:20.547Z,22.13
2023-03-26T21:44:47.645Z,6.82
2023-03-26T21:47:14.888Z,5.03
2023-03-26T21:49:41.678Z,5.07
2023-03-26T21:52:13.547Z,8.57
2023-03-26T21:54:43.000Z,8.23
2023-03-26T21:57:15.840Z,8.98
2023-03-26T21:59:48.177Z,4.38
2023-03-26T22:02:36.299Z,4.13
2023-03-26T22:05:15.036Z,5.00
2023-03-26T22:08:01.496Z,4.35
2023-03-26T22:10:29.404Z,5.03
2023-03-26T22:12:55.868Z,7.85
2023-03-26T22:15:23.905Z,3.95
2023-03-26T22:17:54.070Z,6.40
2023-03-26T22:20:24.364Z,6.28
2023-03-26T22:22:53.296Z,9.88
2023-03-26T22:25:21.037Z,5.15
2023-03-26T22:27:49.113Z,3.95
2023-03-26T22:30:16.393Z,5.30
2023-03-26T22:32:45.937Z,4.60
2023-03-26T22:35:13.137Z,5.13
2023-03-26T22:37:40.536Z,7.35
2023-03-26T22:40:08.949Z,6.20
2023-03-26T22:42:36.046Z,4.95
2023-03-26T22:45:04.069Z,4.32
2023-03-26T22:47:33.537Z,9.60
2023-03-26T22:50:00.524Z,2.90
2023-03-26T22:52:27.327Z,3.97
2023-03-26T22:54:53.846Z,3.35
2023-03-26T22:57:21.897Z,9.32
2023-03-26T22:59:48.458Z,8.10
2023-03-26T23:02:16.548Z,10.02
2023-03-26T23:04:44.044Z,5.10
2023-03-26T23:07:10.912Z,4.00
2023-03-26T23:09:37.541Z,5.03
2023-03-26T23:12:04.350Z,4.15
2023-03-26T23:14:32.470Z,4.57
2023-03-26T23:16:59.486Z,5.03
2023-03-26T23:19:26.350Z,7.82
2023-03-26T23:21:52.871Z,3.47
2023-03-26T23:24:20.047Z,7.65
2023-03-26T23:29:16.183Z,4.18
2023-03-26T23:31:42.601Z,6.75
2023-03-26T23:34:09.075Z,5.82
2023-03-26T23:36:36.356Z,5.80
2023-03-26T23:39:04.670Z,5.45
2023-03-26T23:41:31.349Z,3.70
2023-03-26T23:43:57.800Z,3.17
2023-03-26T23:46:30.277Z,5.88
2023-03-26T23:48:59.998Z,7.45
2023-03-26T23:51:27.020Z,10.90
2023-03-26T23:53:53.927Z,5.90
2023-03-26T23:56:23.369Z,2.88
2023-03-26T23:58:49.848Z,4.72
